Dallas, TX (75211)

9:51 PM CDT on August 16, 2017 (GMT -0500)
Dallas Park | | Change Station

Elev 443 ft 32.75 °N, 96.89 °W | Updated 11 seconds ago

Clear
Clear
88.2 °F
Feels Like 95 °F
N
3.0
Wind Variable Wind from ESE

Today
High -- | Low -- °F
--% Chance of Precip.
Yesterday
High -- | Low -- °F
Precip. -- in
Pressure 29.83 in
Visibility 10.0 miles
Clouds Clear
Heat Index 95 °F
Dew Point 71 °F
Humidity 58%
Rainfall 0.00 in
Snow Depth Not available.
6:51 AM 8:11 PM
Waning Crescent, 27% visible
METAR KRBD 170153Z AUTO 17007KT 10SM CLR 32/21 A2986 RMK AO2 SLP100 T03220211
Pressure 29.83 in
Visibility 10.0 miles
Clouds Clear
Heat Index 95 °F
Dew Point 71 °F
Humidity 58%
Rainfall 0.00 in
Snow Depth Not available.
6:51 AM 8:11 PM
Waning Crescent, 27% visible
METAR KRBD 170153Z AUTO 17007KT 10SM CLR 32/21 A2986 RMK AO2 SLP100 T03220211

Get Severe Weather Alerts

Thanks for signing up!

Be on the lookout for a verification email in your inbox.

You'll start receiving the daily forecast at 6 AM.

×

10-Day Weather Forecast

Almanac

Astronomy

Aug. 16, 2017 Rise Set
Actual Time
Civil Twilight
Nautical Twilight
Astronomical Twilight
Moon
Length of Visible Light
Length of Day
Tomorrow will be .
, % of the Moon is Illuminated

Today's Extremes

State Highs State Lows

Community

WunderPhotos

Category 6

Welcome to Category 6. This is the collective home for Weather Underground's featured writeups by Dr. Jeff Masters (right), Bob Henson (left), Chris Burt, and other regular contributors.

Nearby

Air Quality

  Air Quality AQ Index Pollutant
Not available.

Snow Depth

Station Depth Elevation

Earthquake Activity

City Distance Mag. Time & Date
Minimum magnitude displayed is 2.5.

Coastal Water Temperatures

Place Temperature

Stations

Nearby Weather Stations

Station Location Temp. Windchill Dew Point Humidity Wind Precip. Elev Updated Type
                   

Watches & Warnings

There are currently no watches in effect.